Track Николаев Алексей

Time Latitude Longitude Accuracy (66% radius in meters) Altitude (meters) Speed (km/hour) Bearing (degrees) Battery (%) GPS flag
09:47:31 55.737927 37.299145 4 176.88786815984 0 7.04820728302 80 1 delete
09:47:22 55.737912 37.299147 12 176.58881276778 0.0056457668542862 357.91110229492 80 1 delete
09:47:10 55.737909 37.299145 4 176.35309642031 0 357.91110229492 80 1 delete
09:47:01 55.737909 37.299145 4 176.39362590032 0 357.91110229492 80 1 delete
09:46:49 55.737909 37.299145 4 176.48196017067 0 357.91110229492 80 1 delete
09:46:40 55.737909 37.299145 4 176.55774155048 0 357.91110229492 80 1 delete
09:46:28 55.737909 37.299145 4 176.66022281118 0 357.91110229492 80 1 delete
09:46:16 55.737909 37.299145 4 176.75071042656 0 357.91110229492 80 1 delete
09:46:04 55.737909 37.299145 4 176.79127940402 0 357.91110229492 80 1 delete
09:45:52 55.737909 37.299145 4 176.81216303257 0 357.91110229492 80 1 delete
09:45:43 55.737909 37.299145 4 176.85019296107 0 357.91110229492 80 1 delete
09:45:31 55.737909 37.299145 4 177.1312124034 0 357.91110229492 80 1 delete
09:45:19 55.737909 37.299145 6 177.26877506263 0 357.91110229492 80 1 delete
09:45:07 55.737909 37.299145 6 177.41785588463 0 357.91110229492 80 1 delete
09:44:55 55.737909 37.299145 12 177.59269539606 0 357.91110229492 80 1 delete
09:44:43 55.737909 37.299145 8 177.76442763392 0 357.91110229492 80 1 delete
09:44:31 55.737909 37.299145 8 177.9572753903 0 357.91110229492 80 1 delete
09:44:19 55.737909 37.299145 8 178.04865376901 0 357.91110229492 80 1 delete
09:44:07 55.737909 37.299145 8 178.18584229089 0 357.91110229492 80 1 delete
09:43:55 55.737909 37.299145 6 178.12521941599 0 357.91110229492 80 1 delete
09:43:43 55.737909 37.299145 6 178.25623810034 0 357.91110229492 80 1 delete
09:43:31 55.737909 37.299145 6 178.50010990731 0 357.91110229492 80 1 delete
09:43:19 55.737909 37.299145 6 178.5505016288 0 357.91110229492 80 1 delete
09:43:07 55.737909 37.299145 8 178.32614827199 0 357.91110229492 80 1 delete
09:42:55 55.737909 37.299145 6 178.04911338681 0 357.91110229492 80 1 delete
09:42:43 55.737909 37.299145 6 178.02967703729 0 357.91110229492 80 1 delete
09:42:31 55.737909 37.299145 6 177.68449204575 0 357.91110229492 80 1 delete
09:42:19 55.737909 37.299145 6 177.45112234575 0 357.91110229492 80 1 delete
09:42:07 55.737909 37.299145 8 177.29858387326 0 357.91110229492 80 1 delete
09:41:55 55.737909 37.299145 8 176.84568482693 0 357.91110229492 80 1 delete
09:41:43 55.737909 37.299145 8 176.42924121377 0 357.91110229492 80 1 delete
09:41:31 55.737909 37.299145 6 176.34495911033 0 357.91110229492 80 1 delete
09:41:19 55.737909 37.299145 6 176.30592776027 0 357.91110229492 80 1 delete
09:41:07 55.737909 37.299145 8 176.25087031127 0 357.91110229492 80 1 delete
09:40:55 55.737909 37.299145 6 176.34570066268 0 357.91110229492 80 1 delete
09:40:43 55.737909 37.299145 6 176.46607307704 0 357.91110229492 80 1 delete
09:40:31 55.737909 37.299145 8 176.82289340867 0 357.91110229492 80 1 delete
09:40:19 55.737909 37.299145 4 176.75875737309 0 357.91110229492 80 1 delete
09:40:07 55.737909 37.299145 8 176.74463298295 0 357.91110229492 80 1 delete
09:39:58 55.737909 37.299145 6 176.53501994297 0 357.91110229492 80 1 delete
09:39:46 55.737909 37.299145 4 176.28243373546 0 357.91110229492 80 1 delete
09:39:34 55.737909 37.299145 6 176.17723961798 0 357.91110229492 80 1 delete
09:39:22 55.737909 37.299145 4 176.14717628405 0.28558138012886 357.91110229492 80 1 delete
09:39:10 55.737909 37.299145 4 176.22063474111 0 357.91110229492 80 1 delete
09:38:58 55.737909 37.299145 8 176.19306580073 0 357.91110229492 80 1 delete
09:38:46 55.737909 37.299145 8 176.11441926705 0 357.91110229492 80 1 delete
09:38:31 55.737909 37.299145 8 175.94345799968 0 357.91110229492 80 1 delete
09:38:19 55.737909 37.299145 6 175.71020350512 0 357.91110229492 80 1 delete
09:38:07 55.737909 37.299145 6 175.50327068453 0 357.91110229492 80 1 delete
09:37:55 55.737909 37.299145 8 175.25505078935 0 357.91110229492 80 1 delete